95NE weather

W Meeks Ranch Airport
Taylor, Nebraska, United States

Public forecast

Using degrees Fahrenheit for public forecast. Weather courtesy of forecast.io.

Closest aviation weather report (METAR) to W Meeks Ranch Airport

Closest report is Evelyn Sharp Field, 31.6 nm (58.5 km) SE. Retrieved 2019/10/14 00:53 UTC (1 hour ago):

KODX 140053Z AUTO 00000KT 10SM CLR 03/M04 A2995 RMK AO2 SLP163 T00331044

Closest aviation forecast (TAF) to W Meeks Ranch Airport

Closest forecast is Miller Field, 71.0 nm (131.5 km) NW. Retrieved 2019-10-14 00:22 UTC (2 hours ago):

TAF KVTN 132320Z 1400/1424 VRB04KT P6SM SKC FM141500 22006KT P6SM SCT250 FM142000 27010KT P6SM FEW250 FM142300 31010KT P6SM FEW250